Terminal Aerodrome Forecast
Issued by NWS

Home | Current Version | Previous Version | Text Only | Print | Product List | Glossary On
Versions: 1 2 3 4 5 6 7 8 9 10 11 12 13 14
000
FTUS46 KMTR 310500
TAFOAK
TAF
KOAK 310538Z 3106/0112 26009KT P6SM FEW010 BKN180
     FM310900 23007KT P6SM FEW010 OVC050
     FM311400 16009KT P6SM -RA BKN025 OVC050
     FM311800 21010KT P6SM -RA FEW020 SCT035 BKN050
     FM312100 28010KT P6SM RA BKN035 BKN050
     FM010600 25007KT P6SM -SHRA SCT035 BKN050=

USA.gov is the U.S. government's official web portal to all federal, state and local government web resources and services.